createdAt,value
2022-11-17T00:01:35.395Z,97.42
2022-11-17T00:04:03.673Z,97.34
2022-11-17T00:06:31.940Z,97.37
2022-11-17T00:09:00.163Z,97.14
2022-11-17T00:11:48.447Z,97.09
2022-11-17T00:14:36.714Z,97.02
2022-11-17T00:17:09.139Z,96.98
2022-11-17T00:19:56.811Z,96.94
2022-11-17T00:22:26.020Z,97.06
2022-11-17T00:24:54.232Z,97.02
2022-11-17T00:27:22.477Z,96.88
2022-11-17T00:29:50.728Z,96.32
2022-11-17T00:32:38.389Z,95.82
2022-11-17T00:35:07.269Z,96.41
2022-11-17T00:38:00.437Z,96.71
2022-11-17T00:40:28.845Z,97.20
2022-11-17T00:42:57.062Z,97.47
2022-11-17T00:45:25.261Z,97.63
2022-11-17T00:47:53.455Z,97.69
2022-11-17T00:50:21.654Z,97.84
2022-11-17T00:52:49.895Z,97.26
2022-11-17T00:55:18.163Z,97.57
2022-11-17T00:57:46.374Z,97.59
2022-11-17T01:00:16.123Z,97.46
2022-11-17T01:02:44.328Z,97.61
2022-11-17T01:05:12.609Z,96.81
2022-11-17T01:07:41.002Z,97.34
2022-11-17T01:10:10.299Z,96.96
2022-11-17T01:12:38.551Z,96.61
2022-11-17T01:15:08.358Z,97.16
2022-11-17T01:17:36.588Z,97.92
2022-11-17T01:20:05.672Z,97.26
2022-11-17T01:22:33.889Z,96.96
2022-11-17T01:25:02.112Z,96.73
2022-11-17T01:27:30.393Z,97.10
2022-11-17T01:29:58.619Z,96.94
2022-11-17T01:32:26.889Z,96.67
2022-11-17T01:34:55.068Z,97.00
2022-11-17T01:37:23.287Z,97.36
2022-11-17T01:39:51.527Z,98.03
2022-11-17T01:42:24.293Z,97.69
2022-11-17T01:45:19.410Z,98.33
2022-11-17T01:48:03.211Z,98.24
2022-11-17T01:50:49.405Z,98.02
2022-11-17T01:53:20.524Z,98.77
2022-11-17T01:55:59.891Z,98.66
2022-11-17T01:58:39.638Z,98.83
2022-11-17T02:01:07.889Z,99.16
2022-11-17T02:03:37.275Z,99.65
2022-11-17T02:06:17.181Z,99.82
2022-11-17T02:08:47.102Z,99.91
2022-11-17T02:11:19.332Z,99.50
2022-11-17T02:13:49.085Z,98.57
2022-11-17T02:16:18.077Z,97.79
2022-11-17T02:18:48.665Z,97.16
2022-11-17T02:21:49.487Z,96.89
2022-11-17T02:24:31.505Z,97.09
2022-11-17T02:27:46.985Z,97.18
2022-11-17T02:30:21.940Z,97.78
2022-11-17T02:33:30.256Z,98.21
2022-11-17T02:36:33.361Z,98.52
2022-11-17T02:39:13.250Z,97.39
2022-11-17T02:41:52.937Z,97.16
2022-11-17T02:44:56.509Z,97.35
2022-11-17T02:47:30.277Z,97.40
2022-11-17T02:50:06.657Z,97.77
2022-11-17T02:52:35.096Z,97.86
2022-11-17T02:55:10.536Z,98.28
2022-11-17T02:57:41.140Z,98.72
2022-11-17T03:00:20.094Z,98.55
2022-11-17T03:03:07.124Z,99.07
2022-11-17T03:05:56.929Z,99.44
2022-11-17T03:08:44.419Z,99.68
2022-11-17T03:11:13.858Z,99.80
2022-11-17T03:13:48.212Z,99.87
2022-11-17T03:16:37.909Z,99.97
2022-11-17T03:19:25.996Z,100.00
2022-11-17T03:22:28.208Z,100.00
2022-11-17T03:25:02.817Z,100.00
2022-11-17T03:27:42.894Z,100.00
2022-11-17T03:30:12.754Z,100.00
2022-11-17T03:32:45.467Z,100.00
2022-11-17T03:35:24.977Z,100.00
2022-11-17T03:38:01.555Z,100.00
2022-11-17T03:40:32.908Z,100.00
2022-11-17T03:43:07.039Z,100.00
2022-11-17T03:45:40.303Z,99.68
2022-11-17T03:48:28.987Z,99.81
2022-11-17T03:51:19.149Z,99.71
2022-11-17T03:53:48.107Z,99.60
2022-11-17T03:56:43.360Z,99.92
2022-11-17T03:59:19.154Z,99.94
2022-11-17T04:01:47.491Z,100.00
2022-11-17T04:04:21.601Z,100.00
2022-11-17T04:06:53.321Z,100.00
2022-11-17T04:09:24.598Z,100.00
2022-11-17T04:12:11.784Z,100.00
2022-11-17T04:14:58.535Z,100.00
2022-11-17T04:17:26.843Z,100.00
2022-11-17T04:19:55.190Z,99.72
2022-11-17T04:22:23.469Z,99.47
2022-11-17T04:24:51.794Z,99.82
2022-11-17T04:27:38.595Z,99.22
2022-11-17T04:30:07.532Z,99.84
2022-11-17T04:32:35.799Z,100.00
2022-11-17T04:35:04.528Z,100.00
2022-11-17T04:37:32.921Z,100.00
2022-11-17T04:40:01.224Z,100.00
2022-11-17T04:42:29.537Z,100.00
2022-11-17T04:44:57.946Z,99.82
2022-11-17T04:47:26.208Z,99.65
2022-11-17T04:49:54.523Z,99.05
2022-11-17T04:52:26.933Z,99.02
2022-11-17T04:54:58.054Z,98.78
2022-11-17T04:57:26.304Z,98.89
2022-11-17T04:59:54.701Z,98.57
2022-11-17T05:02:22.989Z,98.49
2022-11-17T05:04:57.093Z,98.63
2022-11-17T05:07:25.436Z,98.24
2022-11-17T05:09:53.787Z,98.28
2022-11-17T05:12:40.654Z,98.15
2022-11-17T05:15:09.403Z,98.18
2022-11-17T05:17:37.611Z,97.71
2022-11-17T05:20:07.004Z,97.92
2022-11-17T05:22:53.959Z,98.10
2022-11-17T05:25:22.315Z,97.53
2022-11-17T05:27:50.649Z,97.83
2022-11-17T05:30:19.091Z,98.63
2022-11-17T05:32:47.340Z,98.17
2022-11-17T05:35:18.288Z,98.49
2022-11-17T05:37:46.749Z,97.99
2022-11-17T05:40:15.672Z,97.64
2022-11-17T05:42:46.170Z,97.56
2022-11-17T05:45:14.514Z,98.05
2022-11-17T05:47:43.164Z,98.23
2022-11-17T05:50:11.506Z,98.44
2022-11-17T05:52:39.932Z,98.76
2022-11-17T05:55:08.190Z,98.48
2022-11-17T05:57:36.698Z,98.49
2022-11-17T06:00:05.941Z,98.48
2022-11-17T06:02:56.877Z,98.42
2022-11-17T06:05:25.995Z,98.27
2022-11-17T06:07:57.834Z,98.38
2022-11-17T06:10:27.355Z,98.90
2022-11-17T06:12:56.282Z,98.72
2022-11-17T06:15:24.634Z,98.61
2022-11-17T06:18:03.961Z,99.05
2022-11-17T06:20:41.338Z,98.57
2022-11-17T06:23:11.846Z,98.63
2022-11-17T06:25:40.257Z,98.79
2022-11-17T06:28:15.217Z,99.29
2022-11-17T06:30:44.061Z,99.17
2022-11-17T06:33:15.751Z,99.23
2022-11-17T06:35:45.913Z,99.65
2022-11-17T06:38:14.302Z,99.88
2022-11-17T06:40:42.683Z,99.84
2022-11-17T06:43:11.106Z,99.56
2022-11-17T06:45:41.725Z,99.60
2022-11-17T06:48:12.813Z,99.41
2022-11-17T06:50:41.592Z,98.72
2022-11-17T06:53:12.400Z,99.31
2022-11-17T06:55:42.010Z,98.91
2022-11-17T06:58:11.828Z,99.17
2022-11-17T07:00:40.402Z,98.92
2022-11-17T07:03:11.052Z,98.81
2022-11-17T07:05:40.437Z,99.52
2022-11-17T07:08:09.629Z,99.19
2022-11-17T07:10:38.628Z,99.04
2022-11-17T07:13:07.228Z,98.57
2022-11-17T07:15:35.787Z,99.20
2022-11-17T07:18:04.390Z,99.67
2022-11-17T07:20:32.903Z,98.90
2022-11-17T07:23:01.419Z,98.73
2022-11-17T07:25:29.928Z,99.07
2022-11-17T07:28:00.425Z,99.41
2022-11-17T07:30:29.423Z,99.58
2022-11-17T07:33:04.059Z,99.22
2022-11-17T07:35:32.464Z,98.41
2022-11-17T07:38:01.661Z,98.66
2022-11-17T07:40:31.675Z,98.73
2022-11-17T07:43:00.477Z,98.92
2022-11-17T07:45:31.804Z,98.97
2022-11-17T07:48:03.263Z,98.59
2022-11-17T07:50:32.742Z,98.64
2022-11-17T07:53:01.939Z,98.79
2022-11-17T07:55:30.312Z,98.59
2022-11-17T07:58:01.221Z,98.42
2022-11-17T08:00:31.860Z,98.31
2022-11-17T08:03:02.246Z,98.01
2022-11-17T08:05:32.380Z,98.12
2022-11-17T08:08:00.760Z,97.79
2022-11-17T08:10:32.516Z,97.91
2022-11-17T08:13:01.752Z,98.26
2022-11-17T08:15:30.972Z,98.57
2022-11-17T08:18:01.316Z,98.09
2022-11-17T08:20:30.263Z,98.02
2022-11-17T08:22:58.802Z,98.49
2022-11-17T08:25:28.062Z,99.03
2022-11-17T08:27:58.333Z,98.89
2022-11-17T08:30:27.022Z,99.25
2022-11-17T08:32:55.415Z,99.81
2022-11-17T08:35:26.090Z,99.73
2022-11-17T08:37:55.278Z,99.80
2022-11-17T08:40:23.639Z,99.68
2022-11-17T08:43:00.312Z,98.67
2022-11-17T08:45:29.194Z,98.85
2022-11-17T08:47:57.907Z,98.46
2022-11-17T08:50:26.925Z,97.99
2022-11-17T08:52:55.323Z,98.64
2022-11-17T08:55:23.884Z,98.74
2022-11-17T08:57:52.270Z,98.39
2022-11-17T09:00:22.009Z,98.30
2022-11-17T09:02:50.376Z,98.39
2022-11-17T09:05:18.724Z,98.85
2022-11-17T09:07:47.138Z,99.73
2022-11-17T09:10:15.585Z,99.19
2022-11-17T09:12:43.973Z,99.09
2022-11-17T09:15:12.526Z,98.70
2022-11-17T09:17:43.116Z,98.87
2022-11-17T09:20:12.386Z,98.96
2022-11-17T09:22:40.730Z,99.51
2022-11-17T09:25:13.335Z,99.06
2022-11-17T09:27:42.076Z,98.10
2022-11-17T09:30:11.308Z,98.41
2022-11-17T09:32:39.699Z,98.30
2022-11-17T09:35:09.468Z,98.18
2022-11-17T09:37:37.817Z,98.64
2022-11-17T09:40:07.571Z,98.69
2022-11-17T09:42:40.746Z,98.86
2022-11-17T09:45:14.813Z,98.81
2022-11-17T09:47:51.536Z,99.05
2022-11-17T09:50:45.292Z,98.58
2022-11-17T09:53:24.381Z,98.40
2022-11-17T09:56:03.639Z,98.58
2022-11-17T09:58:58.914Z,98.67
2022-11-17T10:01:29.212Z,98.35
2022-11-17T10:04:17.058Z,98.53
2022-11-17T10:07:04.245Z,98.90
2022-11-17T10:09:52.272Z,98.59
2022-11-17T10:12:32.511Z,98.01
2022-11-17T10:15:22.276Z,97.48
2022-11-17T10:17:50.982Z,97.36
2022-11-17T10:20:20.161Z,97.58
2022-11-17T10:22:52.354Z,97.33
2022-11-17T10:25:37.876Z,97.84
2022-11-17T10:28:09.342Z,99.20
2022-11-17T10:30:37.693Z,98.47
2022-11-17T10:33:06.392Z,98.40
2022-11-17T10:35:36.268Z,98.12
2022-11-17T10:38:08.391Z,97.69
2022-11-17T10:40:39.457Z,98.06
2022-11-17T10:43:14.003Z,97.77
2022-11-17T10:45:47.984Z,97.87
2022-11-17T10:48:19.539Z,97.96
2022-11-17T10:51:00.111Z,97.68
2022-11-17T10:53:46.674Z,98.44
2022-11-17T10:56:25.086Z,97.69
2022-11-17T10:59:02.311Z,97.53
2022-11-17T11:01:46.495Z,97.71
2022-11-17T11:04:42.109Z,97.91
2022-11-17T11:07:24.311Z,97.39
2022-11-17T11:10:07.687Z,97.16
2022-11-17T11:12:52.561Z,97.66
2022-11-17T11:15:24.725Z,98.06
2022-11-17T11:17:53.098Z,98.97
2022-11-17T11:20:41.916Z,98.68
2022-11-17T11:23:19.847Z,98.16
2022-11-17T11:26:01.819Z,98.63
2022-11-17T11:28:55.070Z,98.57
2022-11-17T11:31:39.375Z,98.87
2022-11-17T11:34:20.327Z,99.24
2022-11-17T11:36:59.471Z,98.84
2022-11-17T11:39:55.380Z,98.51
2022-11-17T11:42:35.619Z,98.69
2022-11-17T11:45:33.917Z,98.43
2022-11-17T11:48:34.020Z,98.78
2022-11-17T11:51:13.747Z,98.75
2022-11-17T11:54:00.053Z,98.56
2022-11-17T11:56:46.297Z,98.38
2022-11-17T11:59:50.313Z,99.23
2022-11-17T12:02:27.774Z,99.75
2022-11-17T12:05:05.167Z,99.81
2022-11-17T12:08:17.816Z,99.29
2022-11-17T12:11:25.716Z,99.14
2022-11-17T12:13:54.713Z,98.97
2022-11-17T12:16:41.067Z,99.93
2022-11-17T12:19:53.565Z,99.85
2022-11-17T12:22:33.826Z,99.53
2022-11-17T12:25:29.250Z,98.69
2022-11-17T12:27:57.946Z,98.96
2022-11-17T12:30:37.731Z,99.02
2022-11-17T12:33:08.697Z,98.71
2022-11-17T12:35:39.721Z,98.69
2022-11-17T12:38:17.118Z,98.57
2022-11-17T12:40:54.083Z,98.68
2022-11-17T12:43:27.847Z,97.94
2022-11-17T12:45:56.157Z,97.72
2022-11-17T12:48:35.092Z,98.06
2022-11-17T12:51:10.835Z,97.80
2022-11-17T12:53:59.060Z,97.26
2022-11-17T12:57:00.377Z,97.39
2022-11-17T12:59:42.062Z,97.13
2022-11-17T13:02:31.476Z,97.45
2022-11-17T13:05:08.586Z,97.01
2022-11-17T13:07:37.119Z,96.35
2022-11-17T13:10:06.037Z,96.85
2022-11-17T13:12:34.461Z,97.35
2022-11-17T13:15:05.688Z,97.41
2022-11-17T13:17:43.805Z,97.61
2022-11-17T13:20:30.157Z,97.20
2022-11-17T13:23:09.614Z,98.32
2022-11-17T13:25:37.900Z,97.66
2022-11-17T13:28:06.365Z,98.23
2022-11-17T13:30:34.862Z,97.50
2022-11-17T13:33:04.127Z,96.72
2022-11-17T13:35:35.979Z,96.96
2022-11-17T13:38:07.080Z,97.34
2022-11-17T13:40:37.222Z,97.87
2022-11-17T13:43:07.619Z,98.10
2022-11-17T13:45:36.064Z,98.43
2022-11-17T13:48:04.450Z,98.12
2022-11-17T13:50:37.458Z,97.70
2022-11-17T13:53:09.378Z,98.51
2022-11-17T13:55:45.121Z,98.48
2022-11-17T13:58:40.912Z,97.77
2022-11-17T14:01:13.804Z,97.85
2022-11-17T14:03:46.620Z,98.30
2022-11-17T14:06:15.100Z,97.89
2022-11-17T14:09:02.508Z,97.35
2022-11-17T14:11:31.177Z,97.96
2022-11-17T14:14:01.372Z,97.89
2022-11-17T14:16:41.927Z,98.32
2022-11-17T14:19:16.454Z,98.74
2022-11-17T14:22:09.601Z,98.24
2022-11-17T14:24:38.167Z,98.13
2022-11-17T14:27:34.835Z,98.56
2022-11-17T14:30:05.656Z,98.24
2022-11-17T14:32:35.084Z,98.32
2022-11-17T14:35:03.700Z,98.41
2022-11-17T14:37:32.714Z,98.54
2022-11-17T14:40:03.965Z,98.18
2022-11-17T14:42:35.933Z,97.54
2022-11-17T14:45:05.280Z,98.07
2022-11-17T14:47:33.656Z,98.06
2022-11-17T14:50:02.141Z,97.65
2022-11-17T14:52:30.517Z,97.15
2022-11-17T14:54:59.258Z,96.40
2022-11-17T14:57:27.581Z,96.52
2022-11-17T14:59:55.891Z,96.48
2022-11-17T15:02:24.321Z,96.55
2022-11-17T15:04:53.263Z,97.06
2022-11-17T15:07:22.088Z,96.76
2022-11-17T15:09:50.422Z,96.37
2022-11-17T15:12:18.817Z,96.48
2022-11-17T15:14:48.100Z,96.19
2022-11-17T15:17:17.037Z,95.94
2022-11-17T15:19:45.731Z,96.40
2022-11-17T15:22:14.165Z,96.16
2022-11-17T15:24:42.582Z,96.10
2022-11-17T15:27:12.467Z,95.79
2022-11-17T15:29:40.764Z,95.67
2022-11-17T15:32:09.135Z,95.53
2022-11-17T15:34:37.428Z,95.64
2022-11-17T15:37:05.889Z,95.54
2022-11-17T15:39:34.234Z,95.26
2022-11-17T15:42:02.553Z,95.73
2022-11-17T15:44:30.854Z,95.14
2022-11-17T15:46:59.150Z,95.07
2022-11-17T15:49:27.454Z,95.13
2022-11-17T15:51:55.783Z,95.05
2022-11-17T15:54:24.151Z,94.25
2022-11-17T15:56:52.629Z,93.96
2022-11-17T15:59:21.190Z,94.42
2022-11-17T16:01:49.762Z,94.79
2022-11-17T16:04:18.198Z,95.03
2022-11-17T16:06:47.049Z,94.88
2022-11-17T16:09:16.279Z,94.77
2022-11-17T16:11:44.868Z,94.78
2022-11-17T16:14:15.025Z,95.60
2022-11-17T16:16:46.129Z,95.36
2022-11-17T16:19:14.931Z,94.17
2022-11-17T16:21:44.677Z,94.05
2022-11-17T16:24:13.355Z,93.89
2022-11-17T16:26:41.760Z,93.59
2022-11-17T16:29:10.518Z,94.13
2022-11-17T16:31:39.926Z,93.75
2022-11-17T16:34:13.798Z,93.93
2022-11-17T16:36:44.012Z,93.59
2022-11-17T16:39:17.203Z,93.80
2022-11-17T16:41:46.101Z,94.47
2022-11-17T16:44:17.107Z,94.98
2022-11-17T16:46:48.550Z,94.92
2022-11-17T16:49:19.636Z,95.32
2022-11-17T16:51:50.998Z,94.57
2022-11-17T16:54:20.342Z,94.78
2022-11-17T16:56:49.010Z,94.38
2022-11-17T16:59:17.848Z,94.34
2022-11-17T17:01:47.683Z,93.81
2022-11-17T17:04:16.412Z,94.12
2022-11-17T17:06:46.080Z,94.23
2022-11-17T17:09:15.445Z,94.24
2022-11-17T17:11:44.073Z,94.12
2022-11-17T17:14:15.029Z,94.42
2022-11-17T17:16:43.852Z,94.96
2022-11-17T17:19:14.534Z,94.27
2022-11-17T17:21:44.165Z,94.64
2022-11-17T17:24:12.824Z,94.70
2022-11-17T17:26:42.985Z,94.56
2022-11-17T17:29:11.903Z,94.52
2022-11-17T17:31:42.649Z,94.28
2022-11-17T17:34:13.632Z,93.03
2022-11-17T17:36:42.343Z,93.33
2022-11-17T17:39:16.069Z,93.09
2022-11-17T17:41:46.163Z,93.03
2022-11-17T17:44:18.054Z,92.92
2022-11-17T17:46:48.546Z,92.67
2022-11-17T17:49:19.380Z,93.00
2022-11-17T17:51:48.134Z,92.84
2022-11-17T17:54:21.585Z,92.65
2022-11-17T17:56:50.370Z,92.38
2022-11-17T17:59:19.466Z,92.76
2022-11-17T18:01:49.450Z,92.82
2022-11-17T18:04:18.131Z,93.22
2022-11-17T18:06:48.399Z,93.36
2022-11-17T18:09:20.510Z,93.13
2022-11-17T18:11:50.995Z,92.95
2022-11-17T18:14:24.766Z,92.98
2022-11-17T18:16:54.012Z,92.54
2022-11-17T18:19:26.873Z,92.67
2022-11-17T18:21:58.393Z,92.65
2022-11-17T18:24:26.930Z,92.33
2022-11-17T18:26:55.648Z,91.77
2022-11-17T18:29:24.929Z,92.14
2022-11-17T18:31:53.450Z,92.36
2022-11-17T18:34:24.629Z,91.91
2022-11-17T18:36:55.868Z,92.17
2022-11-17T18:39:25.078Z,91.82
2022-11-17T18:41:53.555Z,92.42
2022-11-17T18:44:22.080Z,92.08
2022-11-17T18:46:50.478Z,91.99
2022-11-17T18:49:19.427Z,91.91
2022-11-17T18:51:50.532Z,91.57
2022-11-17T18:54:18.999Z,91.65
2022-11-17T18:56:47.535Z,91.47
2022-11-17T18:59:18.729Z,90.99
2022-11-17T19:01:47.616Z,91.69
2022-11-17T19:04:16.202Z,91.92
2022-11-17T19:06:44.756Z,91.97
2022-11-17T19:09:13.808Z,91.66
2022-11-17T19:11:42.626Z,91.44
2022-11-17T19:14:11.010Z,91.62
2022-11-17T19:16:44.435Z,91.68
2022-11-17T19:19:14.574Z,91.29
2022-11-17T19:21:43.634Z,91.02
2022-11-17T19:24:12.392Z,91.28
2022-11-17T19:26:40.824Z,91.23
2022-11-17T19:29:16.734Z,91.54
2022-11-17T19:31:47.640Z,91.25
2022-11-17T19:34:18.736Z,91.38
2022-11-17T19:36:47.423Z,91.84
2022-11-17T19:39:17.170Z,91.16
2022-11-17T19:41:47.747Z,90.55
2022-11-17T19:44:16.399Z,91.04
2022-11-17T19:46:47.979Z,91.10
2022-11-17T19:49:16.674Z,91.24
2022-11-17T19:51:45.516Z,91.43
2022-11-17T19:54:16.249Z,91.49
2022-11-17T19:56:44.921Z,91.60
2022-11-17T19:59:16.349Z,91.19
2022-11-17T20:01:46.289Z,91.03
2022-11-17T20:04:15.155Z,90.76
2022-11-17T20:06:43.656Z,90.81
2022-11-17T20:09:15.164Z,91.00
2022-11-17T20:11:44.148Z,91.28
2022-11-17T20:14:14.580Z,91.59
2022-11-17T20:16:43.453Z,91.00
2022-11-17T20:19:14.224Z,90.84
2022-11-17T20:21:43.085Z,90.79
2022-11-17T20:24:11.779Z,90.52
2022-11-17T20:26:42.729Z,90.86
2022-11-17T20:29:11.298Z,91.38
2022-11-17T20:31:40.021Z,91.17
2022-11-17T20:34:12.902Z,91.33
2022-11-17T20:36:41.422Z,91.10
2022-11-17T20:39:10.150Z,91.04
2022-11-17T20:41:38.747Z,90.97
2022-11-17T20:44:24.055Z,90.77
2022-11-17T20:46:57.797Z,91.16
2022-11-17T20:49:30.050Z,91.52
2022-11-17T20:51:58.774Z,91.38
2022-11-17T20:54:27.365Z,91.47
2022-11-17T20:56:55.981Z,91.50
2022-11-17T20:59:24.817Z,91.29
2022-11-17T21:01:53.671Z,91.33
2022-11-17T21:04:22.258Z,91.31
2022-11-17T21:06:51.049Z,91.33
2022-11-17T21:09:19.881Z,91.40
2022-11-17T21:11:57.431Z,90.98
2022-11-17T21:14:27.707Z,91.05
2022-11-17T21:16:57.872Z,91.09
2022-11-17T21:19:27.604Z,90.85
2022-11-17T21:21:56.511Z,90.44
2022-11-17T21:24:26.345Z,90.13
2022-11-17T21:26:54.793Z,90.44
2022-11-17T21:29:23.419Z,90.28
2022-11-17T21:31:51.964Z,89.31
2022-11-17T21:34:20.576Z,90.33
2022-11-17T21:36:49.233Z,90.59
2022-11-17T21:39:19.804Z,90.55
2022-11-17T21:41:48.541Z,90.39
2022-11-17T21:44:17.396Z,90.28
2022-11-17T21:46:45.865Z,89.97
2022-11-17T21:49:14.758Z,90.11
2022-11-17T21:51:43.650Z,90.02
2022-11-17T21:54:12.172Z,90.07
2022-11-17T21:56:40.965Z,90.17
2022-11-17T21:59:14.233Z,90.41
2022-11-17T22:01:43.870Z,90.30
2022-11-17T22:04:13.326Z,89.99
2022-11-17T22:06:42.071Z,90.39
2022-11-17T22:09:10.597Z,90.55
2022-11-17T22:11:39.298Z,90.40
2022-11-17T22:14:16.281Z,90.62
2022-11-17T22:16:53.969Z,90.63
2022-11-17T22:19:26.962Z,90.13
2022-11-17T22:21:55.614Z,90.19
2022-11-17T22:24:24.257Z,90.22
2022-11-17T22:26:52.629Z,90.16
2022-11-17T22:29:22.558Z,90.45
2022-11-17T22:31:51.435Z,90.47
2022-11-17T22:34:19.870Z,90.90
2022-11-17T22:36:48.267Z,91.05
2022-11-17T22:39:17.060Z,91.09
2022-11-17T22:41:45.649Z,90.99
2022-11-17T22:44:16.017Z,90.12
2022-11-17T22:46:44.472Z,90.01
2022-11-17T22:49:13.502Z,89.67
2022-11-17T22:52:00.664Z,89.94
2022-11-17T22:54:30.472Z,90.14
2022-11-17T22:56:59.265Z,90.16
2022-11-17T22:59:29.053Z,90.09
2022-11-17T23:01:57.652Z,89.66
2022-11-17T23:04:26.268Z,89.61
2022-11-17T23:06:54.929Z,90.07
2022-11-17T23:09:23.458Z,90.05
2022-11-17T23:11:51.904Z,89.94
2022-11-17T23:14:20.428Z,89.56
2022-11-17T23:16:49.003Z,89.48
2022-11-17T23:19:17.915Z,89.69
2022-11-17T23:21:46.817Z,89.72
2022-11-17T23:24:15.345Z,89.12
2022-11-17T23:26:43.895Z,89.45
2022-11-17T23:29:12.387Z,89.25
2022-11-17T23:31:40.878Z,89.47
2022-11-17T23:34:11.004Z,89.45
2022-11-17T23:36:39.805Z,89.43
2022-11-17T23:39:08.414Z,88.94
2022-11-17T23:41:37.289Z,89.19
2022-11-17T23:44:06.471Z,88.93
2022-11-17T23:46:35.277Z,89.03
2022-11-17T23:49:04.131Z,88.70
2022-11-17T23:51:32.822Z,88.54
2022-11-17T23:54:03.075Z,88.63
2022-11-17T23:56:33.849Z,88.89
2022-11-17T23:59:02.454Z,89.41
